createdAt,value
2022-10-04T00:00:07.883Z,13.4
2022-10-04T00:01:04.860Z,13.3
2022-10-04T00:02:10.178Z,13.3
2022-10-04T00:03:06.072Z,13.4
2022-10-04T00:04:04.615Z,13.4
2022-10-04T00:05:05.200Z,13.3
2022-10-04T00:06:00.919Z,13.3
2022-10-04T00:07:03.646Z,13.3
2022-10-04T00:08:10.093Z,13.3
2022-10-04T00:09:05.216Z,13.2
2022-10-04T00:10:05.112Z,13.2
2022-10-04T00:11:03.588Z,13.2
2022-10-04T00:12:03.380Z,13.2
2022-10-04T00:13:03.150Z,13.2
2022-10-04T00:14:05.806Z,13.2
2022-10-04T00:15:03.202Z,13.2
2022-10-04T00:16:00.915Z,13.2
2022-10-04T00:17:07.947Z,13.2
2022-10-04T00:18:10.091Z,13.2
2022-10-04T00:19:02.240Z,13.3
2022-10-04T00:20:01.263Z,13.3
2022-10-04T00:21:01.305Z,13.3
2022-10-04T00:22:03.396Z,13.2
2022-10-04T00:23:10.084Z,13.2
2022-10-04T00:24:10.101Z,13.2
2022-10-04T00:25:07.545Z,13.2
2022-10-04T00:26:01.532Z,13.2
2022-10-04T00:27:10.095Z,13.2
2022-10-04T00:28:10.153Z,13.2
2022-10-04T00:29:10.089Z,13.1
2022-10-04T00:30:01.140Z,13.1
2022-10-04T00:31:10.202Z,13.2
2022-10-04T00:32:07.656Z,13.2
2022-10-04T00:33:00.852Z,13.2
2022-10-04T00:34:03.395Z,13.1
2022-10-04T00:35:00.195Z,13.1
2022-10-04T00:36:00.158Z,13.1
2022-10-04T00:37:00.862Z,13.1
2022-10-04T00:38:10.090Z,13.0
2022-10-04T00:39:01.442Z,13.0
2022-10-04T00:40:06.682Z,13.0
2022-10-04T00:41:02.972Z,13.0
2022-10-04T00:42:07.456Z,13.0
2022-10-04T00:43:03.350Z,13.0
2022-10-04T00:44:01.051Z,13.0
2022-10-04T00:45:05.372Z,13.0
2022-10-04T00:46:03.926Z,13.0
2022-10-04T00:47:01.532Z,13.0
2022-10-04T00:48:08.798Z,13.0
2022-10-04T00:49:02.717Z,12.9
2022-10-04T00:50:05.677Z,12.9
2022-10-04T00:51:10.085Z,12.9
2022-10-04T00:52:02.021Z,12.9
2022-10-04T00:53:01.545Z,12.9
2022-10-04T00:54:04.150Z,12.9
2022-10-04T00:55:05.945Z,12.9
2022-10-04T00:56:01.935Z,12.9
2022-10-04T00:57:03.890Z,12.8
2022-10-04T00:58:02.228Z,12.8
2022-10-04T00:59:03.388Z,12.8
2022-10-04T01:00:04.812Z,12.8
2022-10-04T01:01:01.586Z,12.8
2022-10-04T01:02:03.787Z,12.7
2022-10-04T01:03:03.847Z,12.7
2022-10-04T01:04:02.493Z,12.7
2022-10-04T01:05:07.133Z,12.8
2022-10-04T01:06:02.442Z,12.8
2022-10-04T01:07:01.703Z,12.8
2022-10-04T01:08:05.543Z,12.7
2022-10-04T01:09:02.744Z,12.7
2022-10-04T01:10:03.173Z,12.7
2022-10-04T01:11:04.139Z,12.6
2022-10-04T01:12:03.185Z,12.6
2022-10-04T01:13:10.094Z,12.6
2022-10-04T01:14:04.815Z,12.6
2022-10-04T01:15:07.729Z,12.6
2022-10-04T01:16:03.538Z,12.6
2022-10-04T01:17:01.461Z,12.6
2022-10-04T01:18:10.148Z,12.7
2022-10-04T01:19:10.092Z,12.7
2022-10-04T01:20:00.689Z,12.7
2022-10-04T01:21:05.930Z,12.7
2022-10-04T01:22:07.472Z,12.7
2022-10-04T01:23:01.766Z,12.7
2022-10-04T01:24:00.183Z,12.6
2022-10-04T01:25:00.177Z,12.6
2022-10-04T01:26:01.831Z,12.7
2022-10-04T01:27:00.512Z,12.7
2022-10-04T01:28:00.278Z,12.7
2022-10-04T01:29:00.145Z,12.7
2022-10-04T01:30:00.861Z,12.7
2022-10-04T01:31:00.258Z,12.7
2022-10-04T01:32:00.706Z,12.7
2022-10-04T01:33:00.213Z,12.7
2022-10-04T01:34:00.781Z,12.7
2022-10-04T01:35:00.210Z,12.7
2022-10-04T01:36:00.194Z,12.7
2022-10-04T01:37:00.260Z,12.7
2022-10-04T01:38:02.433Z,12.6
2022-10-04T01:39:00.604Z,12.6
2022-10-04T01:40:00.326Z,12.7
2022-10-04T01:41:01.095Z,12.7
2022-10-04T01:42:07.480Z,12.6
2022-10-04T01:43:03.843Z,12.6
2022-10-04T01:44:02.697Z,12.6
2022-10-04T01:45:02.992Z,12.6
2022-10-04T01:46:04.894Z,12.6
2022-10-04T01:47:02.995Z,12.6
2022-10-04T01:48:04.724Z,12.6
2022-10-04T01:49:02.628Z,12.6
2022-10-04T01:50:07.749Z,12.6
2022-10-04T01:51:04.459Z,12.6
2022-10-04T01:52:04.404Z,12.6
2022-10-04T01:53:07.441Z,12.6
2022-10-04T01:54:05.960Z,12.6
2022-10-04T01:55:02.842Z,12.7
2022-10-04T01:56:05.538Z,12.7
2022-10-04T01:57:04.542Z,12.7
2022-10-04T01:58:06.325Z,12.7
2022-10-04T01:59:03.410Z,12.7
2022-10-04T02:00:03.963Z,12.7
2022-10-04T02:01:05.300Z,12.6
2022-10-04T02:02:05.706Z,12.6
2022-10-04T02:03:03.080Z,12.6
2022-10-04T02:04:03.637Z,12.6
2022-10-04T02:05:01.165Z,12.6
2022-10-04T02:06:02.224Z,12.6
2022-10-04T02:07:01.862Z,12.6
2022-10-04T02:08:03.295Z,12.6
2022-10-04T02:09:05.646Z,12.6
2022-10-04T02:10:03.023Z,12.6
2022-10-04T02:11:01.700Z,12.6
2022-10-04T02:12:00.525Z,12.6
2022-10-04T02:13:00.385Z,12.6
2022-10-04T02:14:00.181Z,12.6
2022-10-04T02:15:01.656Z,12.6
2022-10-04T02:16:01.007Z,12.6
2022-10-04T02:17:01.476Z,12.6
2022-10-04T02:18:00.448Z,12.6
2022-10-04T02:19:01.029Z,12.6
2022-10-04T02:20:01.402Z,12.6
2022-10-04T02:21:00.258Z,12.6
2022-10-04T02:22:02.711Z,12.5
2022-10-04T02:23:00.421Z,12.5
2022-10-04T02:24:00.343Z,12.3
2022-10-04T02:25:01.133Z,12.3
2022-10-04T02:26:04.180Z,12.1
2022-10-04T02:27:00.159Z,12.1
2022-10-04T02:28:00.321Z,12.2
2022-10-04T02:29:00.240Z,12.2
2022-10-04T02:30:05.073Z,12.1
2022-10-04T02:31:00.799Z,12.1
2022-10-04T02:32:02.138Z,12.1
2022-10-04T02:33:00.464Z,12.1
2022-10-04T02:34:00.639Z,12.2
2022-10-04T02:35:00.847Z,12.2
2022-10-04T02:36:00.455Z,12.1
2022-10-04T02:37:01.806Z,12.1
2022-10-04T02:38:03.175Z,12.1
2022-10-04T02:39:10.085Z,12.2
2022-10-04T02:40:10.090Z,12.2
2022-10-04T02:41:10.089Z,12.2
2022-10-04T02:42:02.982Z,12.2
2022-10-04T02:43:07.875Z,12.1
2022-10-04T02:44:10.086Z,12.1
2022-10-04T02:45:10.100Z,12.0
2022-10-04T02:46:01.199Z,12.0
2022-10-04T02:47:10.091Z,12.1
2022-10-04T02:48:03.087Z,12.1
2022-10-04T02:49:03.729Z,12.1
2022-10-04T02:50:05.053Z,12.1
2022-10-04T02:51:06.505Z,11.9
2022-10-04T02:52:04.534Z,11.9
2022-10-04T02:53:09.171Z,11.9
2022-10-04T02:54:03.827Z,11.9
2022-10-04T02:55:03.638Z,11.9
2022-10-04T02:56:01.577Z,11.9
2022-10-04T02:57:00.294Z,11.9
2022-10-04T02:58:00.495Z,11.9
2022-10-04T02:59:01.849Z,11.9
2022-10-04T03:00:08.521Z,11.9
2022-10-04T03:01:00.283Z,11.9
2022-10-04T03:02:01.163Z,11.8
2022-10-04T03:03:10.092Z,11.6
2022-10-04T03:04:00.280Z,11.6
2022-10-04T03:05:04.319Z,11.7
2022-10-04T03:06:04.864Z,11.7
2022-10-04T03:07:03.829Z,11.7
2022-10-04T03:08:00.244Z,11.7
2022-10-04T03:09:02.660Z,11.6
2022-10-04T03:10:01.390Z,11.6
2022-10-04T03:11:01.539Z,11.6
2022-10-04T03:12:00.336Z,11.6
2022-10-04T03:13:00.825Z,11.6
2022-10-04T03:14:01.513Z,11.6
2022-10-04T03:15:00.289Z,11.6
2022-10-04T03:16:00.267Z,11.4
2022-10-04T03:17:01.660Z,11.4
2022-10-04T03:18:00.169Z,11.5
2022-10-04T03:19:00.535Z,11.5
2022-10-04T03:20:00.258Z,11.4
2022-10-04T03:21:01.378Z,11.4
2022-10-04T03:22:02.261Z,11.4
2022-10-04T03:23:00.227Z,11.4
2022-10-04T03:24:01.095Z,11.5
2022-10-04T03:25:00.197Z,11.5
2022-10-04T03:26:03.226Z,11.6
2022-10-04T03:27:02.943Z,11.4
2022-10-04T03:28:01.323Z,11.4
2022-10-04T03:29:00.441Z,11.4
2022-10-04T03:30:00.297Z,11.5
2022-10-04T03:31:00.278Z,11.5
2022-10-04T03:32:02.047Z,11.4
2022-10-04T03:33:00.249Z,11.4
2022-10-04T03:34:00.271Z,11.3
2022-10-04T03:35:02.209Z,11.2
2022-10-04T03:36:00.574Z,11.2
2022-10-04T03:37:00.902Z,11.2
2022-10-04T03:38:03.915Z,11.2
2022-10-04T03:39:07.335Z,11.2
2022-10-04T03:40:00.829Z,11.2
2022-10-04T03:41:00.965Z,11.2
2022-10-04T03:42:02.872Z,11.3
2022-10-04T03:43:01.366Z,11.3
2022-10-04T03:44:04.146Z,11.2
2022-10-04T03:45:01.944Z,11.2
2022-10-04T03:46:01.093Z,11.2
2022-10-04T03:47:00.583Z,11.2
2022-10-04T03:48:04.446Z,11.2
2022-10-04T03:49:00.382Z,11.2
2022-10-04T03:50:03.926Z,11.2
2022-10-04T03:51:03.027Z,11.2
2022-10-04T03:52:00.984Z,11.2
2022-10-04T03:53:04.790Z,11.1
2022-10-04T03:54:01.367Z,11.1
2022-10-04T03:55:02.191Z,11.1
2022-10-04T03:56:04.211Z,11.1
2022-10-04T03:57:00.953Z,11.1
2022-10-04T03:58:00.367Z,11.0
2022-10-04T03:59:02.088Z,11.0
2022-10-04T04:00:00.516Z,11.0
2022-10-04T04:01:10.152Z,11.0
2022-10-04T04:02:03.101Z,11.0
2022-10-04T04:03:02.687Z,11.0
2022-10-04T04:04:03.091Z,11.0
2022-10-04T04:05:10.097Z,10.8
2022-10-04T04:06:04.752Z,10.8
2022-10-04T04:07:01.766Z,10.8
2022-10-04T04:08:05.481Z,10.9
2022-10-04T04:09:00.550Z,10.9
2022-10-04T04:10:03.551Z,10.9
2022-10-04T04:11:01.458Z,10.9
2022-10-04T04:12:00.879Z,10.9
2022-10-04T04:13:02.753Z,10.9
2022-10-04T04:14:03.721Z,10.9
2022-10-04T04:15:00.907Z,10.9
2022-10-04T04:16:01.180Z,10.9
2022-10-04T04:17:10.098Z,10.9
2022-10-04T04:18:02.454Z,10.9
2022-10-04T04:19:01.650Z,10.9
2022-10-04T04:20:07.004Z,10.7
2022-10-04T04:21:01.519Z,10.7
2022-10-04T04:22:00.187Z,10.6
2022-10-04T04:23:10.091Z,10.6
2022-10-04T04:24:02.725Z,10.6
2022-10-04T04:25:01.642Z,10.6
2022-10-04T04:26:10.098Z,10.6
2022-10-04T04:27:01.655Z,10.6
2022-10-04T04:28:10.138Z,10.6
2022-10-04T04:29:01.136Z,10.6
2022-10-04T04:30:01.615Z,10.7
2022-10-04T04:31:03.626Z,10.7
2022-10-04T04:32:04.429Z,10.7
2022-10-04T04:33:04.310Z,10.8
2022-10-04T04:34:01.683Z,10.8
2022-10-04T04:35:01.120Z,10.8
2022-10-04T04:36:10.094Z,10.8
2022-10-04T04:37:01.679Z,10.8
2022-10-04T04:38:04.438Z,10.7
2022-10-04T04:39:07.499Z,10.7
2022-10-04T04:40:10.100Z,10.7
2022-10-04T04:41:06.726Z,10.7
2022-10-04T04:42:05.172Z,10.7
2022-10-04T04:43:01.496Z,10.7
2022-10-04T04:44:00.659Z,10.6
2022-10-04T04:45:02.950Z,10.5
2022-10-04T04:46:26.260Z,10.5
2022-10-04T04:47:00.516Z,10.5
2022-10-04T04:48:00.956Z,10.4
2022-10-04T04:49:01.897Z,10.4
2022-10-04T04:50:04.049Z,10.4
2022-10-04T04:51:00.176Z,10.4
2022-10-04T04:52:00.388Z,10.5
2022-10-04T04:53:04.614Z,10.4
2022-10-04T04:54:02.442Z,10.4
2022-10-04T04:55:00.838Z,10.4
2022-10-04T04:56:04.269Z,10.5
2022-10-04T04:57:00.173Z,10.5
2022-10-04T04:58:00.492Z,10.4
2022-10-04T04:59:02.080Z,10.4
2022-10-04T05:00:00.761Z,10.4
2022-10-04T05:01:07.691Z,10.5
2022-10-04T05:02:00.229Z,10.5
2022-10-04T05:03:02.525Z,10.3
2022-10-04T05:04:03.412Z,10.3
2022-10-04T05:05:10.093Z,10.4
2022-10-04T05:06:00.192Z,10.4
2022-10-04T05:07:01.873Z,10.4
2022-10-04T05:08:10.087Z,10.4
2022-10-04T05:09:00.478Z,10.4
2022-10-04T05:10:00.161Z,10.4
2022-10-04T05:11:02.544Z,10.3
2022-10-04T05:12:04.357Z,10.3
2022-10-04T05:13:01.194Z,10.3
2022-10-04T05:14:02.123Z,10.3
2022-10-04T05:15:00.181Z,10.3
2022-10-04T05:16:00.749Z,10.3
2022-10-04T05:17:00.284Z,10.3
2022-10-04T05:18:01.007Z,10.3
2022-10-04T05:19:02.041Z,10.3
2022-10-04T05:20:01.491Z,10.4
2022-10-04T05:21:06.311Z,10.4
2022-10-04T05:22:02.222Z,10.4
2022-10-04T05:23:00.201Z,10.4
2022-10-04T05:24:10.094Z,10.1
2022-10-04T05:25:01.697Z,10.1
2022-10-04T05:26:01.366Z,10.2
2022-10-04T05:27:05.720Z,10.3
2022-10-04T05:28:00.982Z,10.3
2022-10-04T05:29:05.819Z,10.2
2022-10-04T05:30:08.917Z,10.2
2022-10-04T05:31:10.084Z,10.2
2022-10-04T05:32:10.130Z,10.2
2022-10-04T05:33:02.356Z,10.2
2022-10-04T05:34:00.765Z,10.2
2022-10-04T05:35:00.475Z,10.2
2022-10-04T05:36:10.086Z,10.2
2022-10-04T05:37:07.558Z,10.2
2022-10-04T05:38:10.090Z,10.2
2022-10-04T05:39:04.192Z,10.2
2022-10-04T05:40:00.134Z,10.2
2022-10-04T05:41:05.361Z,10.2
2022-10-04T05:42:03.909Z,10.2
2022-10-04T05:43:00.191Z,10.2
2022-10-04T05:44:00.405Z,10.2
2022-10-04T05:45:00.219Z,10.2
2022-10-04T05:46:10.135Z,10.2
2022-10-04T05:47:00.912Z,10.2
2022-10-04T05:48:00.390Z,10.2
2022-10-04T05:49:05.159Z,10.2
2022-10-04T05:50:00.491Z,10.2
2022-10-04T05:51:00.176Z,10.2
2022-10-04T05:52:01.324Z,10.2
2022-10-04T05:53:10.092Z,10.2
2022-10-04T05:54:00.727Z,10.2
2022-10-04T05:55:10.101Z,10.1
2022-10-04T05:56:10.089Z,10.1
2022-10-04T05:57:10.089Z,10.1
2022-10-04T05:58:07.849Z,10.1
2022-10-04T05:59:10.091Z,10.1
2022-10-04T06:00:10.101Z,10.1
2022-10-04T06:01:00.222Z,10.1
2022-10-04T06:02:01.188Z,10.1
2022-10-04T06:03:10.087Z,10.2
2022-10-04T06:04:10.088Z,10.2
2022-10-04T06:05:09.135Z,10.2
2022-10-04T06:06:04.126Z,10.2
2022-10-04T06:07:03.346Z,10.2
2022-10-04T06:08:04.021Z,10.2
2022-10-04T06:09:00.151Z,10.2
2022-10-04T06:10:08.772Z,10.3
2022-10-04T06:11:04.199Z,10.1
2022-10-04T06:12:00.137Z,10.1
2022-10-04T06:13:09.058Z,10.2
2022-10-04T06:14:03.395Z,10.2
2022-10-04T06:15:05.940Z,10.2
2022-10-04T06:16:03.458Z,10.2
2022-10-04T06:17:10.108Z,10.2
2022-10-04T06:18:10.086Z,10.2
2022-10-04T06:19:01.146Z,10.2
2022-10-04T06:20:10.100Z,10.3
2022-10-04T06:21:10.094Z,10.3
2022-10-04T06:22:07.674Z,10.3
2022-10-04T06:23:01.086Z,10.3
2022-10-04T06:24:08.368Z,10.3
2022-10-04T06:25:01.146Z,10.3
2022-10-04T06:26:04.161Z,10.4
2022-10-04T06:27:07.617Z,10.3
2022-10-04T06:28:10.154Z,10.3
2022-10-04T06:29:02.204Z,10.3
2022-10-04T06:30:05.700Z,10.3
2022-10-04T06:31:10.164Z,10.4
2022-10-04T06:32:10.009Z,10.4
2022-10-04T06:33:10.088Z,10.4
2022-10-04T06:34:01.142Z,10.4
2022-10-04T06:35:00.139Z,10.4
2022-10-04T06:36:01.144Z,10.3
2022-10-04T06:37:10.089Z,10.4
2022-10-04T06:38:01.145Z,10.4
2022-10-04T06:39:10.089Z,10.4
2022-10-04T06:40:08.760Z,10.4
2022-10-04T06:41:00.147Z,10.4
2022-10-04T06:42:03.390Z,10.4
2022-10-04T06:43:10.100Z,10.4
2022-10-04T06:44:10.089Z,10.4
2022-10-04T06:45:10.103Z,10.5
2022-10-04T06:46:07.669Z,10.5
2022-10-04T06:47:10.103Z,10.4
2022-10-04T06:48:10.097Z,10.4
2022-10-04T06:49:07.549Z,10.4
2022-10-04T06:50:10.092Z,10.4
2022-10-04T06:51:10.116Z,10.5
2022-10-04T06:52:09.940Z,10.5
2022-10-04T06:53:10.090Z,10.5
2022-10-04T06:54:01.149Z,10.5
2022-10-04T06:55:10.102Z,10.5
2022-10-04T06:56:03.379Z,10.5
2022-10-04T06:57:07.545Z,10.5
2022-10-04T06:58:01.139Z,10.5
2022-10-04T06:59:08.217Z,10.6
2022-10-04T07:00:06.791Z,10.6
2022-10-04T07:01:10.124Z,10.7
2022-10-04T07:02:05.606Z,10.7
2022-10-04T07:03:03.228Z,10.6
2022-10-04T07:04:03.379Z,10.6
2022-10-04T07:05:11.393Z,10.9
2022-10-04T07:06:01.606Z,10.9
2022-10-04T07:07:10.094Z,10.8
2022-10-04T07:08:10.090Z,10.8
2022-10-04T07:09:02.125Z,10.8
2022-10-04T07:10:03.423Z,10.8
2022-10-04T07:11:03.999Z,10.8
2022-10-04T07:12:04.574Z,10.8
2022-10-04T07:13:03.395Z,10.8
2022-10-04T07:14:05.093Z,10.8
2022-10-04T07:15:01.808Z,10.8
2022-10-04T07:16:06.081Z,10.9
2022-10-04T07:17:02.623Z,11.0
2022-10-04T07:18:04.241Z,11.0
2022-10-04T07:19:07.489Z,10.9
2022-10-04T07:20:00.488Z,10.9
2022-10-04T07:21:04.498Z,11.0
2022-10-04T07:22:10.092Z,11.0
2022-10-04T07:23:04.477Z,10.8
2022-10-04T07:24:00.612Z,10.8
2022-10-04T07:25:10.095Z,10.8
2022-10-04T07:26:04.746Z,10.8
2022-10-04T07:27:01.821Z,10.8
2022-10-04T07:28:09.117Z,10.9
2022-10-04T07:29:01.862Z,10.9
2022-10-04T07:30:04.304Z,10.9
2022-10-04T07:31:03.829Z,10.9
2022-10-04T07:32:03.510Z,10.9
2022-10-04T07:33:00.262Z,10.9
2022-10-04T07:34:02.538Z,10.9
2022-10-04T07:35:06.048Z,11.0
2022-10-04T07:36:05.279Z,11.0
2022-10-04T07:37:05.611Z,10.9
2022-10-04T07:38:10.096Z,10.9
2022-10-04T07:39:05.617Z,11.0
2022-10-04T07:40:05.252Z,11.0
2022-10-04T07:41:04.653Z,11.0
2022-10-04T07:42:10.098Z,11.0
2022-10-04T07:43:04.237Z,11.0
2022-10-04T07:44:05.330Z,11.0
2022-10-04T07:45:10.105Z,11.1
2022-10-04T07:46:03.682Z,11.1
2022-10-04T07:47:00.137Z,11.1
2022-10-04T07:48:10.088Z,11.1
2022-10-04T07:49:00.386Z,11.1
2022-10-04T07:50:10.100Z,11.3
2022-10-04T07:51:00.132Z,11.3
2022-10-04T07:52:06.816Z,11.3
2022-10-04T07:53:07.227Z,11.3
2022-10-04T07:54:07.361Z,11.3
2022-10-04T07:55:10.098Z,11.3
2022-10-04T07:56:10.088Z,11.3
2022-10-04T07:57:07.085Z,11.4
2022-10-04T07:58:03.387Z,11.4
2022-10-04T07:59:10.091Z,11.6
2022-10-04T08:00:04.012Z,11.6
2022-10-04T08:01:10.090Z,11.7
2022-10-04T08:02:10.181Z,11.7
2022-10-04T08:03:10.150Z,11.8
2022-10-04T08:04:04.414Z,11.8
2022-10-04T08:05:10.095Z,11.9
2022-10-04T08:06:10.098Z,11.9
2022-10-04T08:07:01.580Z,11.9
2022-10-04T08:08:07.643Z,12.0
2022-10-04T08:09:03.380Z,12.2
2022-10-04T08:10:01.150Z,12.2
2022-10-04T08:11:10.071Z,12.2
2022-10-04T08:12:00.135Z,12.2
2022-10-04T08:13:07.648Z,12.3
2022-10-04T08:14:09.870Z,12.3
2022-10-04T08:15:10.100Z,12.4
2022-10-04T08:16:02.863Z,12.4
2022-10-04T08:17:15.099Z,12.4
2022-10-04T08:18:10.097Z,12.4
2022-10-04T08:19:10.085Z,12.5
2022-10-04T08:20:07.515Z,12.5
2022-10-04T08:21:04.271Z,12.7
2022-10-04T08:22:04.366Z,12.7
2022-10-04T08:23:10.084Z,12.7
2022-10-04T08:24:09.332Z,12.7
2022-10-04T08:25:00.131Z,12.7
2022-10-04T08:26:10.092Z,12.8
2022-10-04T08:27:00.137Z,12.8
2022-10-04T08:28:07.628Z,12.8
2022-10-04T08:29:10.091Z,12.9
2022-10-04T08:30:03.032Z,12.9
2022-10-04T08:31:10.134Z,12.9
2022-10-04T08:32:10.093Z,12.9
2022-10-04T08:33:05.081Z,13.0
2022-10-04T08:34:10.090Z,13.0
2022-10-04T08:35:07.768Z,13.0
2022-10-04T08:36:10.094Z,13.0
2022-10-04T08:37:10.095Z,13.3
2022-10-04T08:38:07.689Z,13.3
2022-10-04T08:39:00.152Z,13.3
2022-10-04T08:40:12.005Z,13.3
2022-10-04T08:41:10.086Z,13.2
2022-10-04T08:42:10.096Z,13.2
2022-10-04T08:43:07.607Z,13.3
2022-10-04T08:44:07.508Z,13.3
2022-10-04T08:45:03.384Z,13.3
2022-10-04T08:46:10.176Z,13.3
2022-10-04T08:47:10.102Z,13.3
2022-10-04T08:48:10.098Z,13.3
2022-10-04T08:49:10.089Z,13.4
2022-10-04T08:50:01.139Z,13.4
2022-10-04T08:51:00.137Z,13.4
2022-10-04T08:52:07.513Z,13.5
2022-10-04T08:53:10.963Z,13.6
2022-10-04T08:54:10.087Z,13.6
2022-10-04T08:55:00.139Z,13.6
2022-10-04T08:56:10.096Z,13.7
2022-10-04T08:57:04.364Z,13.8
2022-10-04T08:58:07.447Z,13.8
2022-10-04T08:59:10.092Z,13.8
2022-10-04T09:00:08.412Z,13.8
2022-10-04T09:01:10.192Z,13.8
2022-10-04T09:02:10.088Z,13.8
2022-10-04T09:03:10.240Z,13.9
2022-10-04T09:04:10.092Z,13.9
2022-10-04T09:05:10.092Z,13.9
2022-10-04T09:06:10.088Z,13.9
2022-10-04T09:07:10.091Z,13.9
2022-10-04T09:08:10.097Z,13.9
2022-10-04T09:09:03.388Z,13.9
2022-10-04T09:10:10.099Z,13.9
2022-10-04T09:11:10.095Z,14.1
2022-10-04T09:12:10.092Z,14.1
2022-10-04T09:13:00.127Z,14.1
2022-10-04T09:14:10.086Z,14.3
2022-10-04T09:15:01.151Z,14.3
2022-10-04T09:16:07.627Z,14.2
2022-10-04T09:17:03.443Z,14.2
2022-10-04T09:18:00.130Z,14.2
2022-10-04T09:19:01.144Z,14.2
2022-10-04T09:20:36.857Z,14.1
2022-10-04T09:21:01.175Z,14.1
2022-10-04T09:22:10.087Z,14.3
2022-10-04T09:23:09.209Z,14.4
2022-10-04T09:24:07.527Z,14.4
2022-10-04T09:25:00.131Z,14.4
2022-10-04T09:26:10.089Z,14.4
2022-10-04T09:27:10.091Z,14.5
2022-10-04T09:28:00.242Z,14.5
2022-10-04T09:29:07.546Z,14.6
2022-10-04T09:30:00.159Z,14.6
2022-10-04T09:31:06.714Z,14.7
2022-10-04T09:32:01.153Z,14.7
2022-10-04T09:33:03.387Z,14.7
2022-10-04T09:34:09.708Z,14.7
2022-10-04T09:35:03.396Z,14.7
2022-10-04T09:36:10.092Z,14.7
2022-10-04T09:37:07.541Z,14.8
2022-10-04T09:38:10.093Z,14.8
2022-10-04T09:39:25.229Z,14.8
2022-10-04T09:40:01.140Z,14.8
2022-10-04T09:41:10.086Z,14.8
2022-10-04T09:42:10.091Z,14.8
2022-10-04T09:43:10.085Z,14.9
2022-10-04T09:44:10.130Z,14.9
2022-10-04T09:45:10.097Z,14.9
2022-10-04T09:46:00.211Z,14.9
2022-10-04T09:47:07.298Z,15.0
2022-10-04T09:48:00.135Z,15.0
2022-10-04T09:49:07.417Z,15.0
2022-10-04T09:50:10.107Z,15.0
2022-10-04T09:51:08.380Z,14.9
2022-10-04T09:52:10.090Z,14.9
2022-10-04T09:53:10.091Z,14.9
2022-10-04T09:54:10.089Z,14.9
2022-10-04T09:55:00.162Z,14.9
2022-10-04T09:56:10.086Z,15.0
2022-10-04T09:57:07.902Z,15.1
2022-10-04T09:58:03.379Z,15.1
2022-10-04T09:59:10.088Z,15.2
2022-10-04T10:00:10.113Z,15.2
2022-10-04T10:01:01.138Z,15.2
2022-10-04T10:02:01.168Z,15.3
2022-10-04T10:03:01.264Z,15.3
2022-10-04T10:04:00.134Z,15.3
2022-10-04T10:05:00.177Z,15.3
2022-10-04T10:06:07.853Z,15.4
2022-10-04T10:07:10.093Z,15.3
2022-10-04T10:08:10.092Z,15.3
2022-10-04T10:09:07.586Z,15.4
2022-10-04T10:10:10.105Z,15.4
2022-10-04T10:11:10.085Z,15.5
2022-10-04T10:12:05.587Z,15.5
2022-10-04T10:13:00.131Z,15.5
2022-10-04T10:14:10.084Z,15.5
2022-10-04T10:15:06.723Z,15.5
2022-10-04T10:16:10.113Z,15.5
2022-10-04T10:17:07.559Z,15.5
2022-10-04T10:18:10.092Z,15.5
2022-10-04T10:19:10.088Z,15.4
2022-10-04T10:20:01.142Z,15.4
2022-10-04T10:21:01.149Z,15.4
2022-10-04T10:22:10.083Z,15.6
2022-10-04T10:23:00.141Z,15.6
2022-10-04T10:24:10.087Z,15.6
2022-10-04T10:25:10.105Z,15.8
2022-10-04T10:26:00.168Z,15.8
2022-10-04T10:27:10.088Z,15.9
2022-10-04T10:28:10.161Z,15.9
2022-10-04T10:29:00.142Z,15.9
2022-10-04T10:30:10.100Z,15.9
2022-10-04T10:31:10.150Z,16.0
2022-10-04T10:32:10.091Z,16.0
2022-10-04T10:33:00.143Z,16.0
2022-10-04T10:34:07.452Z,15.9
2022-10-04T10:35:10.102Z,16.1
2022-10-04T10:36:10.085Z,16.1
2022-10-04T10:37:05.773Z,16.0
2022-10-04T10:38:04.788Z,16.0
2022-10-04T10:39:10.089Z,15.9
2022-10-04T10:40:10.091Z,15.9
2022-10-04T10:41:01.137Z,15.9
2022-10-04T10:42:01.141Z,16.1
2022-10-04T10:43:06.149Z,16.2
2022-10-04T10:44:10.090Z,16.2
2022-10-04T10:45:01.140Z,16.2
2022-10-04T10:46:03.034Z,16.2
2022-10-04T10:47:10.093Z,16.3
2022-10-04T10:48:10.092Z,16.3
2022-10-04T10:49:01.140Z,16.3
2022-10-04T10:50:06.022Z,16.4
2022-10-04T10:51:10.084Z,16.4
2022-10-04T10:52:10.090Z,16.4
2022-10-04T10:53:10.085Z,16.4
2022-10-04T10:54:10.092Z,16.4
2022-10-04T10:55:10.095Z,16.4
2022-10-04T10:56:01.142Z,16.4
2022-10-04T10:57:01.142Z,16.4
2022-10-04T10:58:10.086Z,16.5
2022-10-04T10:59:01.148Z,16.5
2022-10-04T11:00:10.202Z,16.4
2022-10-04T11:01:00.151Z,16.4
2022-10-04T11:02:10.240Z,16.5
2022-10-04T11:03:13.764Z,16.5
2022-10-04T11:04:06.372Z,16.5
2022-10-04T11:05:10.097Z,16.6
2022-10-04T11:06:10.097Z,16.6
2022-10-04T11:07:10.115Z,16.7
2022-10-04T11:08:10.098Z,16.7
2022-10-04T11:09:00.131Z,16.7
2022-10-04T11:10:10.156Z,16.8
2022-10-04T11:11:10.091Z,16.8
2022-10-04T11:12:07.641Z,16.8
2022-10-04T11:13:10.089Z,17.1
2022-10-04T11:14:10.090Z,17.1
2022-10-04T11:15:08.537Z,17.0
2022-10-04T11:16:10.132Z,17.0
2022-10-04T11:17:07.455Z,16.9
2022-10-04T11:18:06.640Z,16.9
2022-10-04T11:19:10.090Z,16.9
2022-10-04T11:20:10.127Z,16.9
2022-10-04T11:21:10.092Z,17.0
2022-10-04T11:22:10.090Z,17.0
2022-10-04T11:23:03.383Z,17.1
2022-10-04T11:24:10.096Z,17.1
2022-10-04T11:25:01.135Z,17.1
2022-10-04T11:26:10.097Z,17.2
2022-10-04T11:27:10.050Z,17.3
2022-10-04T11:28:10.138Z,17.3
2022-10-04T11:29:09.844Z,17.3
2022-10-04T11:30:07.772Z,17.3
2022-10-04T11:31:10.182Z,17.2
2022-10-04T11:32:00.136Z,17.2
2022-10-04T11:33:10.085Z,17.2
2022-10-04T11:34:13.236Z,17.2
2022-10-04T11:35:00.143Z,17.2
2022-10-04T11:36:10.095Z,17.3
2022-10-04T11:37:03.385Z,17.3
2022-10-04T11:38:01.167Z,17.3
2022-10-04T11:39:00.148Z,17.3
2022-10-04T11:40:09.794Z,17.3
2022-10-04T11:41:09.878Z,17.4
2022-10-04T11:42:05.202Z,17.4
2022-10-04T11:43:09.862Z,17.4
2022-10-04T11:44:10.099Z,17.4
2022-10-04T11:45:07.584Z,17.5
2022-10-04T11:46:01.156Z,17.5
2022-10-04T11:47:10.158Z,17.6
2022-10-04T11:48:10.090Z,17.6
2022-10-04T11:49:05.092Z,17.6
2022-10-04T11:50:10.095Z,17.6
2022-10-04T11:51:10.088Z,17.6
2022-10-04T11:52:10.088Z,17.6
2022-10-04T11:53:10.091Z,17.6
2022-10-04T11:54:10.086Z,17.6
2022-10-04T11:55:10.096Z,17.8
2022-10-04T11:56:00.134Z,17.8
2022-10-04T11:57:00.132Z,17.8
2022-10-04T11:58:11.898Z,17.8
2022-10-04T11:59:10.088Z,18.0
2022-10-04T12:00:10.089Z,18.0
2022-10-04T12:01:03.380Z,18.0
2022-10-04T12:02:00.137Z,18.0
2022-10-04T12:03:00.135Z,18.0
2022-10-04T12:04:10.319Z,18.0
2022-10-04T12:05:10.116Z,18.1
2022-10-04T12:06:07.267Z,18.1
2022-10-04T12:07:01.149Z,18.1
2022-10-04T12:08:00.153Z,18.2
2022-10-04T12:09:07.947Z,18.2
2022-10-04T12:10:10.110Z,18.2
2022-10-04T12:11:10.089Z,18.3
2022-10-04T12:12:10.096Z,18.3
2022-10-04T12:13:10.093Z,18.3
2022-10-04T12:14:10.092Z,18.3
2022-10-04T12:15:07.477Z,18.3
2022-10-04T12:16:09.665Z,18.3
2022-10-04T12:17:10.093Z,18.3
2022-10-04T12:18:10.091Z,18.3
2022-10-04T12:19:01.142Z,18.3
2022-10-04T12:20:12.229Z,18.2
2022-10-04T12:21:10.097Z,18.4
2022-10-04T12:22:10.096Z,18.4
2022-10-04T12:23:07.484Z,18.3
2022-10-04T12:24:10.085Z,18.3
2022-10-04T12:25:10.104Z,18.2
2022-10-04T12:26:07.450Z,18.2
2022-10-04T12:27:01.138Z,18.2
2022-10-04T12:28:10.206Z,18.4
2022-10-04T12:29:10.091Z,18.4
2022-10-04T12:30:10.094Z,18.4
2022-10-04T12:31:07.520Z,18.3
2022-10-04T12:32:05.996Z,18.3
2022-10-04T12:33:10.092Z,18.2
2022-10-04T12:34:00.126Z,18.2
2022-10-04T12:35:10.130Z,18.2
2022-10-04T12:36:07.519Z,18.2
2022-10-04T12:37:10.087Z,18.2
2022-10-04T12:38:10.092Z,18.2
2022-10-04T12:39:10.091Z,18.4
2022-10-04T12:40:00.180Z,18.4
2022-10-04T12:41:03.384Z,18.6
2022-10-04T12:42:00.144Z,18.6
2022-10-04T12:43:10.094Z,18.5
2022-10-04T12:44:01.140Z,18.5
2022-10-04T12:45:10.096Z,18.6
2022-10-04T12:46:03.435Z,18.6
2022-10-04T12:47:10.098Z,18.5
2022-10-04T12:48:10.091Z,18.5
2022-10-04T12:49:10.090Z,18.6
2022-10-04T12:50:01.145Z,18.6
2022-10-04T12:51:06.317Z,18.6
2022-10-04T12:52:09.058Z,18.6
2022-10-04T12:53:10.091Z,18.5
2022-10-04T12:54:10.090Z,18.5
2022-10-04T12:55:08.694Z,18.5
2022-10-04T12:56:07.643Z,18.5
2022-10-04T12:57:00.133Z,18.5
2022-10-04T12:58:03.722Z,18.6
2022-10-04T12:59:00.129Z,18.6
2022-10-04T13:00:10.096Z,18.7
2022-10-04T13:01:09.431Z,18.6
2022-10-04T13:02:00.278Z,18.6
2022-10-04T13:03:01.148Z,18.6
2022-10-04T13:04:10.092Z,18.6
2022-10-04T13:05:00.138Z,18.6
2022-10-04T13:06:09.788Z,18.6
2022-10-04T13:07:10.088Z,18.5
2022-10-04T13:08:06.027Z,18.5
2022-10-04T13:09:10.097Z,18.5
2022-10-04T13:10:24.069Z,18.5
2022-10-04T13:11:10.090Z,18.6
2022-10-04T13:12:10.097Z,18.6
2022-10-04T13:13:05.519Z,18.6
2022-10-04T13:14:01.156Z,18.6
2022-10-04T13:15:10.097Z,18.7
2022-10-04T13:17:35.339Z,18.7
2022-10-04T13:18:01.141Z,18.6
2022-10-04T13:19:10.095Z,18.6